map of ARK home
ARK - Airport
Location
City:  Arusha, Arusha, Tanzania
Name:Arusha Airport
ICAO:HTAR
IATA:ARK

Details
Type:Airport (Aerodrome, Airfield)
Latitude:322'04"S (-3.367793)
Longitude:3638'00"E (36.633333)
Datum:WGS 1984
Elevation:4550 ft (1387 m)
Variation:0.01E (WMM2015 magnetic declination)
0.03 annual change
Runways:1
Longest:5377 × 105 ft (1639 × 32 m), paved

Time
Time Zone:UTC+3
Local Time:

Weather
METAR:HTAR 221600Z 11020KT 9999 BKN026 21/16 Q1018 NOSIG
TAF:HTAR 221100Z 2212/2312 13010KT 9999 BKN028
BECMG 2214/2217 FEW028CB BKN030
TEMPO 2223/2303 -RA BKN018 SCT080

Related Locations
Nearby:
Farthest:NHV: 11568 mi / 18616 km
Nuku Hiva, Marquesas Islands, PF

Find:

   beyond  
but within

Other Information
Maps:
NOTAMs:
Links:
Sources:

  
  • flag of Tanzania
  

Sectional Chart

Flight Planning
at skyvector.com

Satellite Image

Google Maps Satellite view

 

Copyright © 2004-2018 Karl L. Swartz. All rights reserved.
The Great Circle Mapper name and logo are trademarks of the Great Circle Mapper.
All other trademarks mentioned herein belong to their respective owners.
Please see credits for attibutions and further copyright information.

  Follow gcmap on Facebook Follow gcmap on Twitter Follow gcmap on Google+ GCmap on LinkedIn

hCard Microformat

Geo Microformat